Time;durP1;ratioP1;P1;durP2;ratioP2;P2;SDS_P1;SDS_P2;PMS_P1;PMS_P2;Temp;Humidity;BMP_temperature;BMP_pressure;BME280_temperature;BME280_humidity;BME280_pressure;Samples;Min_cycle;Max_cycle;Signal;HPM_P1;HPM_P2
2021/06/20 00:01:39;;;;;;;5.50;2.75;;;;;;;22.17;66.55;98969.94;4995793;28;20489;-61
2021/06/20 00:04:10;;;;;;;7.93;3.33;;;;;;;22.17;66.21;98951.47;4995686;28;20096;-60
2021/06/20 00:06:38;;;;;;;5.68;3.10;;;;;;;22.15;66.38;98955.09;5015737;28;20033;-61
2021/06/20 00:09:07;;;;;;;7.40;3.10;;;;;;;22.14;66.54;98956.88;4999049;28;20050;-61
2021/06/20 00:11:39;;;;;;;7.82;3.25;;;;;;;22.14;66.62;98962.16;4999441;28;20038;-61
2021/06/20 00:14:08;;;;;;;9.30;3.28;;;;;;;22.13;66.64;98968.34;5016207;28;20050;-61
2021/06/20 00:16:39;;;;;;;8.15;3.63;;;;;;;22.11;66.52;98967.56;4999740;28;20392;-61
2021/06/20 00:19:10;;;;;;;6.47;3.13;;;;;;;22.11;66.59;98977.28;4999211;28;20409;-61
2021/06/20 00:21:39;;;;;;;7.28;3.30;;;;;;;22.10;66.74;98983.50;4999016;28;20520;-61
2021/06/20 00:24:08;;;;;;;10.65;3.05;;;;;;;22.09;66.69;98979.16;4999330;28;20489;-61
2021/06/20 00:26:38;;;;;;;8.38;3.42;;;;;;;22.07;66.62;98989.75;4999130;28;20057;-61
2021/06/20 00:29:06;;;;;;;7.75;3.10;;;;;;;22.08;66.79;99012.56;4999519;28;20125;-61
2021/06/20 00:31:39;;;;;;;7.07;2.92;;;;;;;22.07;66.73;99005.59;5015165;28;20030;-61
2021/06/20 00:34:08;;;;;;;9.55;3.13;;;;;;;22.05;66.76;99018.84;5015352;28;20065;-61
2021/06/20 00:36:39;;;;;;;9.48;2.97;;;;;;;22.02;66.72;99016.34;4998677;28;20038;-61
2021/06/20 00:39:10;;;;;;;8.40;3.20;;;;;;;22.00;66.73;99015.56;4998755;28;20056;-61
2021/06/20 00:41:40;;;;;;;5.60;2.65;;;;;;;21.98;66.61;99012.16;4999321;28;20210;-61
2021/06/20 00:44:09;;;;;;;11.77;3.95;;;;;;;21.97;66.64;99015.72;4998586;28;20064;-60
2021/06/20 00:46:41;;;;;;;5.80;2.75;;;;;;;21.96;66.79;99005.25;4998785;28;20092;-61
2021/06/20 00:49:12;;;;;;;7.72;3.05;;;;;;;21.94;66.72;98991.28;4999282;28;20123;-61
2021/06/20 00:51:42;;;;;;;9.57;2.35;;;;;;;21.93;66.78;99006.25;4998758;28;20504;-61
2021/06/20 00:54:15;;;;;;;4.28;2.47;;;;;;;21.90;66.69;99004.59;4998509;28;20038;-61
2021/06/20 00:56:50;;;;;;;5.50;2.67;;;;;;;21.89;66.67;99021.34;5014951;28;20069;-61
2021/06/20 00:59:20;;;;;;;4.22;2.53;;;;;;;21.88;66.89;99022.28;4998611;28;20038;-60
2021/06/20 01:01:52;;;;;;;5.55;1.90;;;;;;;21.86;67.00;99021.53;4998782;28;20104;-60
2021/06/20 01:04:23;;;;;;;5.90;2.20;;;;;;;21.86;66.91;99008.34;4998372;28;20512;-60
2021/06/20 01:06:54;;;;;;;8.57;2.00;;;;;;;21.86;66.88;98976.69;4998403;28;20509;-61
2021/06/20 01:09:31;;;;;;;5.03;2.38;;;;;;;21.85;66.78;98977.63;4998179;28;20050;-60
2021/06/20 01:12:02;;;;;;;6.13;2.38;;;;;;;21.84;66.96;98952.16;4998631;28;20088;-60
2021/06/20 01:14:28;;;;;;;7.63;2.40;;;;;;;21.84;67.08;98981.19;4998095;28;20038;-60
2021/06/20 01:16:56;;;;;;;4.45;2.00;;;;;;;21.84;67.07;98973.25;5013459;28;20084;-60
2021/06/20 01:19:21;;;;;;;7.20;2.60;;;;;;;21.81;67.26;99020.88;4998176;28;20132;-60
2021/06/20 01:21:50;;;;;;;5.43;2.75;;;;;;;21.80;67.16;99034.13;4997898;28;20125;-60
2021/06/20 01:24:22;;;;;;;5.53;2.65;;;;;;;21.80;67.11;99042.88;4998523;28;20088;-60
2021/06/20 01:26:53;;;;;;;7.15;2.55;;;;;;;21.79;67.08;99054.38;4997695;28;20073;-61
2021/06/20 01:29:32;;;;;;;7.05;2.28;;;;;;;21.77;67.17;99061.47;5014631;28;20044;-61
2021/06/20 01:32:04;;;;;;;9.02;2.50;;;;;;;21.78;67.18;99067.63;5015167;28;20030;-60
2021/06/20 01:34:36;;;;;;;3.58;2.28;;;;;;;21.76;67.30;99070.31;5014172;28;20037;-60
2021/06/20 01:37:10;;;;;;;6.00;2.90;;;;;;;21.77;67.42;99065.91;4997638;28;20049;-61
2021/06/20 01:39:39;;;;;;;6.82;3.22;;;;;;;21.75;67.31;99071.25;4998138;28;20034;-61
2021/06/20 01:42:14;;;;;;;4.43;3.08;;;;;;;21.74;67.50;99082.72;4998215;28;20524;-60
2021/06/20 01:44:53;;;;;;;6.03;3.63;;;;;;;21.72;67.41;99087.22;4998139;28;20041;-60
2021/06/20 01:47:25;;;;;;;7.53;3.42;;;;;;;21.71;67.37;99093.44;4997612;28;20053;-60
2021/06/20 01:49:55;;;;;;;6.90;3.92;;;;;;;21.70;67.48;99091.72;4997809;28;20092;-61
2021/06/20 01:52:25;;;;;;;5.55;3.30;;;;;;;21.69;67.63;99109.28;5013912;28;20513;-60
2021/06/20 01:54:54;;;;;;;6.03;3.60;;;;;;;21.68;67.37;99097.03;4996968;28;20120;-60
2021/06/20 01:57:28;;;;;;;8.10;3.22;;;;;;;21.67;67.47;99103.22;4997159;28;20091;-60
2021/06/20 01:59:59;;;;;;;4.97;3.13;;;;;;;21.66;67.59;99108.59;4997344;28;20048;-60
2021/06/20 02:02:28;;;;;;;13.43;3.10;;;;;;;21.66;67.54;99101.50;5014056;28;20066;-60
2021/06/20 02:05:00;;;;;;;5.80;3.03;;;;;;;21.63;67.47;99109.59;4997600;28;20038;-62
2021/06/20 02:07:32;;;;;;;4.13;3.10;;;;;;;21.62;67.51;99113.16;5013695;28;20034;-62
2021/06/20 02:10:04;;;;;;;5.53;3.00;;;;;;;21.62;67.53;99107.88;5013026;28;20050;-62
2021/06/20 02:12:33;;;;;;;7.18;3.13;;;;;;;21.62;67.57;99118.41;5013290;28;20041;-62
2021/06/20 02:15:05;;;;;;;6.65;3.10;;;;;;;21.61;67.67;99114.06;5013488;28;20038;-61
2021/06/20 02:17:38;;;;;;;6.10;2.55;;;;;;;21.59;67.74;99118.50;5013410;28;20072;-61
2021/06/20 02:20:14;;;;;;;10.00;3.00;;;;;;;21.59;67.70;99121.16;4997088;28;20604;-62
2021/06/20 02:22:47;;;;;;;7.85;2.53;;;;;;;21.56;67.65;99111.59;4997182;28;20037;-60
2021/06/20 02:25:16;;;;;;;8.05;2.80;;;;;;;21.54;67.56;99105.53;4997470;28;20046;-60
2021/06/20 02:27:43;;;;;;;6.65;3.00;;;;;;;21.52;67.84;99102.13;4996528;28;20490;-60
2021/06/20 02:30:16;;;;;;;6.13;2.90;;;;;;;21.52;67.71;99109.16;4997002;28;20042;-60
2021/06/20 02:32:43;;;;;;;6.38;3.10;;;;;;;21.52;67.78;99106.50;4996808;28;20033;-60
2021/06/20 02:35:16;;;;;;;7.05;3.25;;;;;;;21.48;67.93;99102.31;4996410;28;20065;-60
2021/06/20 02:37:44;;;;;;;7.63;2.55;;;;;;;21.48;67.88;99104.97;5013604;28;20049;-62
2021/06/20 02:40:16;;;;;;;5.75;2.22;;;;;;;21.47;67.66;99111.16;4997057;28;20080;-60
2021/06/20 02:42:50;;;;;;;5.03;2.45;;;;;;;21.44;67.68;99115.63;4996169;28;20068;-60
2021/06/20 02:45:22;;;;;;;3.63;2.22;;;;;;;21.44;67.73;99123.53;5014505;28;20037;-60
2021/06/20 02:47:53;;;;;;;8.77;2.40;;;;;;;21.44;67.81;99133.22;4996912;28;20046;-60
2021/06/20 02:50:27;;;;;;;7.80;2.35;;;;;;;21.43;67.77;99123.59;5013187;28;20041;-60
2021/06/20 02:52:55;;;;;;;5.30;2.42;;;;;;;21.41;67.83;99134.22;4996296;28;20072;-59
2021/06/20 02:55:23;;;;;;;6.65;2.13;;;;;;;21.39;67.79;99130.78;4996298;28;20564;-60
2021/06/20 02:57:52;;;;;;;7.45;3.08;;;;;;;21.41;67.77;99138.63;4996517;28;20046;-60
2021/06/20 03:00:21;;;;;;;5.43;2.30;;;;;;;21.40;67.89;99134.28;4996364;28;20034;-61
2021/06/20 03:02:49;;;;;;;6.70;2.25;;;;;;;21.39;67.94;99130.78;4996690;28;20054;-60
2021/06/20 03:05:23;;;;;;;5.10;2.58;;;;;;;21.36;67.83;99148.50;5012950;28;20405;-60
2021/06/20 03:07:52;;;;;;;8.98;3.00;;;;;;;21.33;67.90;99133.69;4996291;28;20459;-60
2021/06/20 03:10:23;;;;;;;9.30;2.80;;;;;;;21.33;67.72;99131.06;4996119;28;20126;-60
2021/06/20 03:12:53;;;;;;;5.05;2.70;;;;;;;21.33;67.75;99124.91;5012462;28;20164;-60
2021/06/20 03:15:24;;;;;;;5.07;2.58;;;;;;;21.32;67.89;99123.22;4996647;28;20121;-60
2021/06/20 03:17:53;;;;;;;4.43;2.30;;;;;;;21.32;67.93;99139.88;4995891;28;20049;-60
2021/06/20 03:20:24;;;;;;;5.35;2.40;;;;;;;21.32;67.81;99125.84;5012626;28;20084;-60
2021/06/20 03:22:58;;;;;;;5.63;2.47;;;;;;;21.30;67.66;99124.13;4996302;28;20038;-61
2021/06/20 03:25:29;;;;;;;5.88;2.80;;;;;;;21.28;67.74;99131.22;4996049;28;20044;-61
2021/06/20 03:28:00;;;;;;;5.97;3.13;;;;;;;21.28;67.82;99130.41;5012008;28;20042;-62
2021/06/20 03:30:26;;;;;;;4.07;2.45;;;;;;;21.26;67.78;99130.44;4996632;28;20038;-61
2021/06/20 03:32:57;;;;;;;5.13;2.75;;;;;;;21.26;67.85;99143.63;4996043;28;20124;-62
2021/06/20 03:35:29;;;;;;;6.15;2.47;;;;;;;21.26;67.79;99138.34;4996121;28;20088;-61
2021/06/20 03:38:00;;;;;;;3.50;2.28;;;;;;;21.23;67.67;99149.03;4996085;28;20112;-61
2021/06/20 03:40:37;;;;;;;5.30;2.13;;;;;;;21.21;67.93;99158.78;4998364;28;20069;-62
2021/06/20 03:43:10;;;;;;;8.55;2.78;;;;;;;21.20;67.77;99164.97;5017772;28;20046;-61
2021/06/20 03:45:42;;;;;;;7.35;2.75;;;;;;;21.18;67.75;99164.16;5000184;28;20045;-61
2021/06/20 03:48:13;;;;;;;5.60;2.95;;;;;;;21.18;67.82;99166.81;4999838;28;20038;-61
2021/06/20 03:50:41;;;;;;;6.32;2.38;;;;;;;21.15;67.85;99166.94;5015814;28;20116;-62
2021/06/20 03:53:11;;;;;;;4.57;2.70;;;;;;;21.16;67.98;99166.00;4999373;28;20126;-61
2021/06/20 03:55:42;;;;;;;6.85;2.70;;;;;;;21.13;67.77;99167.00;4999694;28;20050;-61
2021/06/20 03:58:13;;;;;;;9.23;2.88;;;;;;;21.14;67.80;99174.00;5016184;28;20121;-62
2021/06/20 04:00:42;;;;;;;8.35;3.00;;;;;;;21.13;67.89;99172.28;4999669;28;20129;-61
2021/06/20 04:03:16;;;;;;;5.45;2.70;;;;;;;21.11;67.88;99174.09;5015514;28;20064;-61
2021/06/20 04:05:47;;;;;;;;;;;;;;;21.08;67.62;99178.66;5000175;28;20520;-61
2021/06/20 04:08:15;;;;;;;6.07;3.20;;;;;;;21.08;67.85;99174.22;5015573;28;19917;-61
2021/06/20 04:10:44;;;;;;;5.90;2.88;;;;;;;21.08;67.80;99173.38;4999454;28;20129;-60
2021/06/20 04:13:19;;;;;;;4.90;3.13;;;;;;;21.06;67.87;99175.22;4999357;28;20065;-60
2021/06/20 04:15:50;;;;;;;;;;;;;;;21.05;67.70;99176.16;5016182;28;20037;-60
2021/06/20 04:18:24;;;;;;;5.10;2.47;;;;;;;21.03;67.92;99177.97;5000031;28;20289;-60
2021/06/20 04:20:52;;;;;;;6.03;3.72;;;;;;;21.03;67.78;99180.63;5015558;28;20042;-60
2021/06/20 04:23:26;;;;;;;7.70;3.15;;;;;;;21.02;67.94;99186.78;5015383;28;20034;-60
2021/06/20 04:25:55;;;;;;;;;;;;;;;20.95;67.73;99181.78;5015643;28;20405;-60
2021/06/20 04:28:29;;;;;;;4.65;3.13;;;;;;;20.97;67.94;99182.56;5016660;28;20372;-60
2021/06/20 04:31:00;;;;;;;6.72;2.83;;;;;;;20.97;67.79;99184.34;5015542;28;20034;-59
2021/06/20 04:33:31;;;;;;;7.72;2.75;;;;;;;20.96;67.71;99195.81;4999546;28;20045;-60
2021/06/20 04:36:02;;;;;;;9.52;3.08;;;;;;;20.97;68.04;99205.44;5015782;28;20048;-60
2021/06/20 04:38:30;;;;;;;7.07;2.92;;;;;;;20.97;67.96;99200.16;4998927;28;20121;-62
2021/06/20 04:41:05;;;;;;;5.90;2.58;;;;;;;20.97;67.84;99205.44;5014922;28;20037;-62
2021/06/20 04:46:33;;;;;;;7.82;3.17;;;;;;;20.94;67.73;99206.38;5016427;28;20493;-62
2021/06/20 04:49:03;;;;;;;7.07;3.13;;;;;;;20.94;67.91;99214.28;4998625;28;20409;-60
2021/06/20 04:51:31;;;;;;;4.13;3.03;;;;;;;20.96;67.70;99220.34;4998500;28;20034;-61
2021/06/20 04:53:58;;;;;;;4.57;2.50;;;;;;;20.96;67.77;99228.25;4999057;28;20038;-61
2021/06/20 04:56:26;;;;;;;4.20;2.63;;;;;;;20.95;67.78;99218.63;5014877;28;20397;-61
2021/06/20 04:58:58;;;;;;;7.20;3.13;;;;;;;20.95;67.73;99223.91;5014901;28;20045;-61
2021/06/20 05:01:29;;;;;;;11.15;3.20;;;;;;;20.95;67.92;99218.63;4998632;28;20041;-61
2021/06/20 05:03:57;;;;;;;6.70;3.00;;;;;;;20.94;67.88;99216.06;4998434;28;20034;-61
2021/06/20 05:06:28;;;;;;;7.55;3.58;;;;;;;20.95;68.06;99220.44;4998590;28;20037;-61
2021/06/20 05:08:59;;;;;;;6.88;2.42;;;;;;;20.94;67.92;99224.81;4998300;28;20133;-61
2021/06/20 05:11:25;;;;;;;9.68;2.58;;;;;;;20.95;67.96;99231.81;4998533;28;20034;-61
2021/06/20 05:13:55;;;;;;;7.15;2.70;;;;;;;20.93;67.92;99236.31;5016267;28;20054;-61
2021/06/20 05:16:23;;;;;;;8.50;2.90;;;;;;;20.95;67.91;99233.59;4997923;28;20038;-62
2021/06/20 05:18:54;;;;;;;8.45;2.20;;;;;;;20.93;67.86;99228.41;5014327;28;20115;-61
2021/06/20 05:21:23;;;;;;;4.70;2.35;;;;;;;20.95;68.04;99225.69;4998318;28;20568;-61
2021/06/20 05:23:59;;;;;;;4.63;2.58;;;;;;;20.94;67.74;99226.63;5014516;28;20049;-61
2021/06/20 05:26:28;;;;;;;8.93;3.30;;;;;;;20.93;67.92;99240.69;4998017;28;20042;-61
2021/06/20 05:28:59;;;;;;;6.43;3.00;;;;;;;20.90;67.85;99249.59;5014278;28;20038;-62
2021/06/20 05:31:31;;;;;;;7.78;2.40;;;;;;;20.90;67.96;99244.31;5014524;28;20026;-61
2021/06/20 05:34:02;;;;;;;4.30;2.47;;;;;;;20.90;67.92;99232.91;5014283;28;20042;-61
2021/06/20 05:36:30;;;;;;;3.92;2.25;;;;;;;20.92;67.97;99241.63;5014605;28;20061;-61
2021/06/20 05:39:01;;;;;;;3.47;1.90;;;;;;;20.90;68.21;99243.44;5015031;28;20520;-61
2021/06/20 05:41:27;;;;;;;4.65;2.38;;;;;;;20.89;67.83;99239.97;5014180;28;20045;-61
2021/06/20 05:43:58;;;;;;;5.97;2.47;;;;;;;20.89;67.83;99241.72;4997753;28;20034;-61
2021/06/20 05:46:27;;;;;;;8.13;3.05;;;;;;;20.89;67.86;99247.88;4998092;28;20029;-61
2021/06/20 05:48:58;;;;;;;6.13;2.40;;;;;;;20.88;67.74;99246.16;5015210;28;20540;-61
2021/06/20 05:51:29;;;;;;;4.05;2.30;;;;;;;20.88;67.78;99247.91;4997343;28;20030;-61
2021/06/20 05:54:00;;;;;;;2.65;2.13;;;;;;;20.86;67.57;99253.25;5013754;28;20069;-61
2021/06/20 05:56:29;;;;;;;5.32;2.13;;;;;;;20.84;67.66;99245.41;5013962;28;20068;-61
2021/06/20 05:58:58;;;;;;;2.65;2.30;;;;;;;20.82;67.83;99242.00;4997238;28;20065;-61
2021/06/20 06:01:23;;;;;;;5.55;2.15;;;;;;;20.84;67.86;99236.66;4997422;28;20033;-61
2021/06/20 06:03:49;;;;;;;4.97;2.70;;;;;;;20.81;67.59;99242.03;5014399;28;20125;-61
2021/06/20 06:06:20;;;;;;;2.50;2.17;;;;;;;20.80;67.56;99245.56;5013581;28;20037;-61
2021/06/20 06:08:45;;;;;;;5.88;2.55;;;;;;;20.80;67.41;99248.22;5013340;28;20048;-61
2021/06/20 06:11:16;;;;;;;5.32;2.13;;;;;;;20.78;67.47;99256.19;5015009;28;20121;-61
2021/06/20 06:13:45;;;;;;;6.10;2.67;;;;;;;20.79;67.44;99257.91;5015024;28;20111;-61
2021/06/20 06:16:16;;;;;;;6.82;2.22;;;;;;;20.76;67.47;99244.00;4997140;28;20034;-61
2021/06/20 06:18:42;;;;;;;2.50;2.25;;;;;;;20.75;67.13;99237.00;5013661;28;20042;-61
2021/06/20 06:21:09;;;;;;;2.65;2.10;;;;;;;20.72;67.32;99223.94;5013224;28;20041;-62
2021/06/20 06:23:44;;;;;;;3.08;1.90;;;;;;;20.71;67.45;99238.84;5013391;28;20042;-61
2021/06/20 06:26:18;;;;;;;2.97;2.13;;;;;;;20.71;67.40;99238.84;4997498;28;20045;-61
2021/06/20 06:28:50;;;;;;;5.93;2.50;;;;;;;20.72;67.55;99235.31;4997470;28;20045;-61
2021/06/20 06:31:22;;;;;;;2.65;1.90;;;;;;;20.74;67.38;99227.38;5013257;28;20092;-61
2021/06/20 06:33:53;;;;;;;6.57;1.80;;;;;;;20.73;67.31;99239.66;5012884;28;20080;-61
2021/06/20 06:36:19;;;;;;;3.85;1.95;;;;;;;20.73;67.46;99238.81;5014575;28;20088;-61
2021/06/20 06:38:50;;;;;;;3.55;1.98;;;;;;;20.72;67.22;99250.25;4996752;28;20136;-61
2021/06/20 06:41:21;;;;;;;6.38;2.22;;;;;;;20.70;67.26;99250.34;5014190;28;20038;-61
2021/06/20 06:43:49;;;;;;;2.63;1.92;;;;;;;20.69;67.31;99249.47;4997075;28;20053;-61
2021/06/20 06:46:20;;;;;;;3.45;1.98;;;;;;;20.67;67.14;99255.72;5012888;28;20033;-61
2021/06/20 06:48:51;;;;;;;2.83;1.60;;;;;;;20.66;67.16;99262.72;5013380;28;20037;-61
2021/06/20 06:51:23;;;;;;;3.65;1.95;;;;;;;20.66;67.09;99257.47;5013115;28;20124;-61
2021/06/20 06:53:51;;;;;;;1.83;1.55;;;;;;;20.67;67.19;99256.56;5012774;28;20080;-61
2021/06/20 06:56:22;;;;;;;3.28;1.98;;;;;;;20.68;67.12;99247.75;5012911;28;20038;-61
2021/06/20 06:58:50;;;;;;;6.20;2.25;;;;;;;20.70;66.98;99250.34;5012779;28;20107;-61
2021/06/20 07:01:22;;;;;;;4.80;1.77;;;;;;;20.69;67.14;99245.97;5012685;28;20041;-61
2021/06/20 07:03:56;;;;;;;3.90;2.17;;;;;;;20.70;66.94;99252.97;4996506;28;20105;-61
2021/06/20 07:06:30;;;;;;;2.70;1.50;;;;;;;20.70;67.00;99255.59;5012423;28;20057;-61
2021/06/20 07:09:04;;;;;;;3.80;2.00;;;;;;;20.71;67.19;99256.44;5012515;28;20045;-61
2021/06/20 07:11:38;;;;;;;3.67;2.05;;;;;;;20.69;67.17;99267.03;5012250;28;20517;-61
2021/06/20 07:14:04;;;;;;;2.28;1.60;;;;;;;20.69;66.85;99248.63;5012945;28;20091;-61
2021/06/20 07:16:33;;;;;;;4.05;1.95;;;;;;;20.70;66.89;99268.75;4996221;28;20041;-61
2021/06/20 07:19:04;;;;;;;2.67;2.15;;;;;;;20.69;66.96;99270.53;5013717;28;20034;-61
2021/06/20 07:21:33;;;;;;;5.18;2.40;;;;;;;20.68;66.74;99260.91;5012471;28;20033;-61
2021/06/20 07:24:01;;;;;;;2.75;1.58;;;;;;;20.67;66.69;99272.34;5013658;28;20045;-61
2021/06/20 07:26:29;;;;;;;2.25;1.50;;;;;;;20.68;66.67;99270.59;5012295;28;20378;-61
2021/06/20 07:28:58;;;;;;;2.15;1.70;;;;;;;20.66;66.64;99267.16;5012530;28;20038;-61
2021/06/20 07:31:26;;;;;;;2.75;1.60;;;;;;;20.64;66.54;99268.97;5012431;28;20042;-61
2021/06/20 07:33:55;;;;;;;2.85;1.83;;;;;;;20.64;66.14;99276.88;5013506;28;20042;-61
2021/06/20 07:36:25;;;;;;;3.08;1.88;;;;;;;20.62;66.65;99273.44;5013029;28;20040;-61
2021/06/20 07:38:57;;;;;;;5.53;1.70;;;;;;;20.63;66.57;99277.78;5013841;28;20034;-61
2021/06/20 07:41:24;;;;;;;4.10;1.52;;;;;;;20.63;66.52;99278.63;4996549;28;20030;-61
2021/06/20 07:43:50;;;;;;;4.63;2.15;;;;;;;20.63;66.37;99270.75;5013548;28;20523;-61
2021/06/20 07:46:21;;;;;;;2.47;1.77;;;;;;;20.64;66.30;99288.25;5012288;28;20093;-61
2021/06/20 07:48:52;;;;;;;2.85;1.60;;;;;;;20.64;66.29;99288.25;5012408;28;20046;-61
2021/06/20 07:51:20;;;;;;;3.92;1.75;;;;;;;20.66;66.22;99293.47;5012938;28;20483;-61
2021/06/20 07:53:51;;;;;;;2.05;1.65;;;;;;;20.67;66.38;99296.03;4995998;28;20042;-61
2021/06/20 07:56:17;;;;;;;4.10;1.60;;;;;;;20.69;66.22;99293.38;5012072;28;20564;-61
2021/06/20 07:58:47;;;;;;;2.03;1.70;;;;;;;20.71;66.19;99285.41;5012007;28;20125;-61
2021/06/20 08:01:18;;;;;;;2.85;2.00;;;;;;;20.72;66.15;99268.69;5011825;28;20065;-61
2021/06/20 08:03:43;;;;;;;3.38;1.80;;;;;;;20.72;66.35;99264.28;4995820;28;20114;-61
2021/06/20 08:06:17;;;;;;;2.65;1.75;;;;;;;20.73;66.22;99275.69;5013334;28;20548;-61
2021/06/20 08:08:43;;;;;;;3.13;2.20;;;;;;;20.75;66.12;99280.00;5012338;28;20049;-61
2021/06/20 08:11:09;;;;;;;2.88;1.77;;;;;;;20.75;66.21;99284.38;5013090;28;20057;-61
2021/06/20 08:13:39;;;;;;;1.95;1.75;;;;;;;20.77;66.24;99279.94;5013111;28;20413;-61
2021/06/20 08:16:08;;;;;;;4.30;2.03;;;;;;;20.77;66.16;99290.47;5011857;28;20121;-61
2021/06/20 08:18:39;;;;;;;4.50;1.90;;;;;;;20.77;66.38;99291.31;5011979;28;20133;-61
2021/06/20 08:21:07;;;;;;;3.63;1.90;;;;;;;20.78;66.05;99294.84;5012395;28;20073;-61
2021/06/20 08:23:36;;;;;;;3.40;2.40;;;;;;;20.78;66.11;99297.47;5011940;28;20164;-61
2021/06/20 08:26:04;;;;;;;4.90;1.70;;;;;;;20.77;66.04;99287.84;5014199;28;20516;-61
2021/06/20 08:28:33;;;;;;;4.22;1.88;;;;;;;20.78;66.08;99285.16;5015531;28;20049;-61
2021/06/20 08:30:59;;;;;;;3.50;1.80;;;;;;;20.77;65.98;99291.31;5015513;28;20033;-62
2021/06/20 08:33:25;;;;;;;2.58;1.80;;;;;;;20.80;65.94;99295.59;5016813;28;20037;-61
2021/06/20 08:35:56;;;;;;;3.50;1.80;;;;;;;20.79;66.19;99286.84;5016793;28;20500;-61
2021/06/20 08:38:27;;;;;;;2.72;1.85;;;;;;;20.79;66.12;99291.25;4998890;28;20065;-61
2021/06/20 08:40:55;;;;;;;4.68;2.20;;;;;;;20.80;65.90;99282.44;5015195;28;20034;-61
2021/06/20 08:43:26;;;;;;;3.95;2.03;;;;;;;20.79;65.88;99291.25;5015233;28;20092;-61
2021/06/20 08:45:56;;;;;;;4.20;1.83;;;;;;;20.78;65.88;99282.50;4998957;28;20093;-61
2021/06/20 08:48:27;;;;;;;2.03;1.80;;;;;;;20.78;65.74;99274.63;5015025;28;20504;-61
2021/06/20 08:50:53;;;;;;;2.25;2.03;;;;;;;20.80;65.69;99274.53;5016451;28;20121;-61
2021/06/20 08:53:20;;;;;;;3.10;1.98;;;;;;;20.80;65.71;99279.81;5015010;28;20037;-61
2021/06/20 08:55:50;;;;;;;2.08;1.60;;;;;;;20.84;65.84;99286.69;5016233;28;20062;-62
2021/06/20 08:58:19;;;;;;;1.70;1.60;;;;;;;20.85;65.80;99296.28;4999352;28;20041;-61
2021/06/20 09:00:45;;;;;;;3.42;2.13;;;;;;;20.88;65.82;99300.56;5016007;28;20038;-61
2021/06/20 09:03:14;;;;;;;3.92;2.03;;;;;;;20.88;65.69;99296.19;5014755;28;20386;-61
2021/06/20 09:05:54;;;;;;;2.75;1.83;;;;;;;20.89;65.62;99283.84;5014726;28;20524;-61
2021/06/20 09:08:27;;;;;;;3.70;1.70;;;;;;;20.87;65.88;99286.56;5014239;28;20485;-62
2021/06/20 09:10:53;;;;;;;4.13;1.70;;;;;;;20.87;65.74;99283.94;5016287;28;20049;-61
2021/06/20 09:13:21;;;;;;;3.00;2.10;;;;;;;20.89;65.58;99290.00;5014717;28;20038;-61
2021/06/20 09:15:59;;;;;;;3.05;2.05;;;;;;;20.88;65.50;99276.88;5015873;28;20046;-61
2021/06/20 09:18:27;;;;;;;3.38;1.95;;;;;;;20.90;65.47;99280.31;5016029;28;20137;-61
2021/06/20 09:20:56;;;;;;;6.40;1.92;;;;;;;20.91;65.52;99293.44;5014845;28;20037;-61
2021/06/20 09:23:27;;;;;;;3.38;2.38;;;;;;;20.94;65.54;99297.72;5014561;28;20062;-61
2021/06/20 09:25:59;;;;;;;2.88;1.42;;;;;;;20.94;65.74;99298.56;4997968;28;20042;-61
2021/06/20 09:28:33;;;;;;;6.28;2.00;;;;;;;20.96;65.54;99299.38;5014339;28;20494;-61
2021/06/20 09:31:03;;;;;;;2.63;1.98;;;;;;;20.96;65.62;99303.78;5014212;28;20034;-61
2021/06/20 09:33:36;;;;;;;2.58;2.13;;;;;;;20.96;65.43;99303.78;5015478;28;20038;-61
2021/06/20 09:36:05;;;;;;;4.47;1.95;;;;;;;20.96;65.45;99302.00;5015755;28;20034;-61
2021/06/20 09:38:38;;;;;;;2.13;1.60;;;;;;;20.97;65.61;99316.88;5014061;28;20033;-61
2021/06/20 09:41:12;;;;;;;4.18;1.95;;;;;;;20.97;65.35;99311.63;5014362;28;20107;-61
2021/06/20 09:43:50;;;;;;;2.95;2.10;;;;;;;20.97;65.39;99318.69;5014976;28;20038;-61
2021/06/20 09:46:19;;;;;;;4.38;1.73;;;;;;;20.97;65.38;99319.53;5014801;28;20034;-61
2021/06/20 09:48:47;;;;;;;4.85;2.13;;;;;;;20.97;65.40;99324.78;5015178;28;20128;-61
2021/06/20 09:51:15;;;;;;;3.20;2.30;;;;;;;20.98;65.31;99318.59;5013708;28;20398;-61
2021/06/20 09:53:43;;;;;;;3.47;1.95;;;;;;;20.97;65.31;99335.31;5013539;28;20397;-61
2021/06/20 09:56:22;;;;;;;2.65;1.63;;;;;;;20.97;65.25;99329.22;5014601;28;20503;-61
2021/06/20 09:59:03;;;;;;;4.18;2.00;;;;;;;20.97;65.35;99321.31;5014815;28;20124;-61
2021/06/20 10:01:41;;;;;;;2.95;1.80;;;;;;;20.98;65.08;99325.66;5015099;28;20046;-61
2021/06/20 10:04:11;;;;;;;2.10;1.70;;;;;;;20.98;65.14;99317.75;5013991;28;20050;-61
2021/06/20 10:06:39;;;;;;;3.65;1.85;;;;;;;20.98;65.26;99312.50;5014805;28;20272;-61
2021/06/20 10:09:06;;;;;;;3.85;2.20;;;;;;;20.99;65.10;99319.47;5014819;28;20060;-61
2021/06/20 10:11:37;;;;;;;3.22;1.92;;;;;;;20.99;65.05;99316.84;5014723;28;20117;-61
2021/06/20 10:14:05;;;;;;;2.20;1.60;;;;;;;21.00;65.36;99300.13;5014943;28;20129;-61
2021/06/20 10:16:35;;;;;;;3.35;1.80;;;;;;;21.01;65.32;99300.97;5013721;28;20038;-61
2021/06/20 10:19:17;;;;;;;2.72;1.67;;;;;;;21.01;65.09;99296.56;5013631;28;20138;-61
2021/06/20 10:22:01;;;;;;;2.97;1.85;;;;;;;21.02;65.14;99306.16;5014428;28;20092;-60
2021/06/20 10:24:27;;;;;;;2.45;1.75;;;;;;;21.03;65.17;99305.25;4996963;28;20034;-60
2021/06/20 10:27:06;;;;;;;5.45;1.70;;;;;;;21.05;65.21;99292.03;5013541;28;20029;-61
2021/06/20 10:29:35;;;;;;;1.63;1.50;;;;;;;21.07;65.16;99298.09;5014586;28;20034;-61
2021/06/20 10:32:13;;;;;;;4.95;2.33;;;;;;;21.08;65.40;99284.03;5012943;28;20029;-61
2021/06/20 10:34:53;;;;;;;1.98;1.65;;;;;;;21.08;64.97;99289.28;4996661;28;20045;-61
2021/06/20 10:37:23;;;;;;;2.63;2.03;;;;;;;21.09;65.01;99291.00;5014634;28;20041;-61
2021/06/20 10:39:50;;;;;;;6.05;2.10;;;;;;;21.09;65.17;99288.38;5013634;28;20042;-61
2021/06/20 10:42:16;;;;;;;2.53;1.55;;;;;;;21.08;64.86;99281.38;5014190;28;20043;-61
2021/06/20 10:44:53;;;;;;;3.30;2.15;;;;;;;21.08;64.92;99276.13;5013707;28;20044;-61
2021/06/20 10:47:44;;;;;;;2.88;1.92;;;;;;;21.06;64.90;99265.63;5014401;28;20084;-62
2021/06/20 10:50:15;;;;;;;3.55;1.90;;;;;;;21.09;64.84;99269.94;5011955;28;20134;-61
2021/06/20 10:52:54;;;;;;;3.95;1.80;;;;;;;21.10;65.02;99258.44;5012967;28;20124;-61
2021/06/20 10:55:20;;;;;;;2.72;1.60;;;;;;;21.11;64.86;99258.41;5014634;28;20088;-61
2021/06/20 10:57:47;;;;;;;4.65;1.73;;;;;;;21.11;64.84;99253.13;5013920;28;20037;-61
2021/06/20 11:00:28;;;;;;;2.92;2.05;;;;;;;21.09;64.79;99260.25;5012778;28;20041;-61
2021/06/20 11:02:56;;;;;;;1.70;1.58;;;;;;;21.09;64.75;99252.34;5014128;28;20070;-61
2021/06/20 11:05:24;;;;;;;3.55;1.95;;;;;;;21.08;64.41;99236.59;5012535;28;20076;-60
2021/06/20 11:08:05;;;;;;;2.33;1.75;;;;;;;21.07;64.65;99224.34;5013902;28;20038;-60
2021/06/20 11:10:31;;;;;;;4.50;1.65;;;;;;;21.09;64.41;99233.06;5012529;28;20080;-61
2021/06/20 11:12:56;;;;;;;1.65;1.55;;;;;;;21.09;64.39;99230.41;5013895;28;20046;-60
2021/06/20 11:15:24;;;;;;;2.75;1.55;;;;;;;21.10;64.50;99230.34;5012579;28;20132;-61
2021/06/20 11:17:52;;;;;;;3.00;1.48;;;;;;;21.11;64.52;99229.44;5013308;28;20133;-61
2021/06/20 11:20:18;;;;;;;2.08;1.40;;;;;;;21.13;64.57;99229.34;5013511;28;20449;-61
2021/06/20 11:22:46;;;;;;;4.53;1.80;;;;;;;21.14;64.31;99231.94;5012136;28;20041;-61
2021/06/20 11:25:11;;;;;;;3.20;1.73;;;;;;;21.18;64.24;99230.03;4996178;28;20057;-61
2021/06/20 11:27:37;;;;;;;3.22;1.80;;;;;;;21.21;64.45;99213.22;5013681;28;20080;-61
2021/06/20 11:30:09;;;;;;;2.95;1.60;;;;;;;21.24;64.51;99221.88;5012545;28;20069;-61
2021/06/20 11:32:40;;;;;;;2.78;1.67;;;;;;;21.25;64.59;99214.84;5013373;28;20044;-61
2021/06/20 11:35:09;;;;;;;3.78;1.83;;;;;;;21.28;64.40;99218.19;5013135;28;20034;-61
2021/06/20 11:37:37;;;;;;;2.13;1.88;;;;;;;21.29;64.31;99212.00;5012381;28;20030;-61
2021/06/20 11:40:06;;;;;;;2.70;1.85;;;;;;;21.31;64.36;99201.41;5013753;28;20041;-61
2021/06/20 11:42:37;;;;;;;2.05;1.55;;;;;;;21.34;64.37;99226.78;5013465;28;20397;-61
2021/06/20 11:45:11;;;;;;;1.70;1.60;;;;;;;21.35;64.35;99225.84;5013039;28;20041;-60
2021/06/20 11:47:38;;;;;;;;;;;;;;;21.34;64.38;99238.16;5014489;28;20037;-60
2021/06/20 11:50:10;;;;;;;3.00;1.85;;;;;;;21.35;64.35;99245.13;5012781;28;20400;-60
2021/06/20 11:52:37;;;;;;;2.30;1.60;;;;;;;21.37;64.26;99240.66;5013576;28;20121;-60